sensor_id;sensor_type;location;lat;lon;timestamp;temperature;humidity
19281;DHT22;9774;52.034;5.342;2023-12-04T00:01:13;6.10;65.30
19281;DHT22;9774;52.034;5.342;2023-12-04T00:03:40;6.20;65.40
19281;DHT22;9774;52.034;5.342;2023-12-04T00:06:07;6.20;65.30
19281;DHT22;9774;52.034;5.342;2023-12-04T00:08:36;6.20;65.40
19281;DHT22;9774;52.034;5.342;2023-12-04T00:11:04;6.20;65.30
19281;DHT22;9774;52.034;5.342;2023-12-04T00:13:33;6.30;65.40
19281;DHT22;9774;52.034;5.342;2023-12-04T00:16:00;6.30;65.30
19281;DHT22;9774;52.034;5.342;2023-12-04T00:18:27;6.30;65.20
19281;DHT22;9774;52.034;5.342;2023-12-04T00:20:54;6.30;65.10
19281;DHT22;9774;52.034;5.342;2023-12-04T00:23:21;6.30;65.10
19281;DHT22;9774;52.034;5.342;2023-12-04T00:25:48;6.30;65.00
19281;DHT22;9774;52.034;5.342;2023-12-04T00:28:15;6.30;64.90
19281;DHT22;9774;52.034;5.342;2023-12-04T00:30:45;6.30;64.80
19281;DHT22;9774;52.034;5.342;2023-12-04T00:33:11;6.40;64.90
19281;DHT22;9774;52.034;5.342;2023-12-04T00:35:38;6.40;64.80
19281;DHT22;9774;52.034;5.342;2023-12-04T00:38:05;6.30;64.80
19281;DHT22;9774;52.034;5.342;2023-12-04T00:40:32;6.40;64.90
19281;DHT22;9774;52.034;5.342;2023-12-04T00:42:59;6.40;64.90
19281;DHT22;9774;52.034;5.342;2023-12-04T00:45:26;6.40;64.90
19281;DHT22;9774;52.034;5.342;2023-12-04T00:47:55;6.40;64.80
19281;DHT22;9774;52.034;5.342;2023-12-04T00:50:22;6.40;64.80
19281;DHT22;9774;52.034;5.342;2023-12-04T00:52:48;6.40;64.90
19281;DHT22;9774;52.034;5.342;2023-12-04T00:55:15;6.40;64.80
19281;DHT22;9774;52.034;5.342;2023-12-04T00:57:42;6.40;64.90
19281;DHT22;9774;52.034;5.342;2023-12-04T01:00:10;6.40;64.90
19281;DHT22;9774;52.034;5.342;2023-12-04T01:02:38;6.40;64.90
19281;DHT22;9774;52.034;5.342;2023-12-04T01:05:08;6.40;64.90
19281;DHT22;9774;52.034;5.342;2023-12-04T01:07:35;6.40;64.90
19281;DHT22;9774;52.034;5.342;2023-12-04T01:10:03;6.40;64.90
19281;DHT22;9774;52.034;5.342;2023-12-04T01:12:32;6.40;64.90
19281;DHT22;9774;52.034;5.342;2023-12-04T01:14:59;6.40;64.90
19281;DHT22;9774;52.034;5.342;2023-12-04T01:17:27;6.40;64.90
19281;DHT22;9774;52.034;5.342;2023-12-04T01:19:54;6.40;64.90
19281;DHT22;9774;52.034;5.342;2023-12-04T01:22:24;6.40;64.90
19281;DHT22;9774;52.034;5.342;2023-12-04T01:24:51;6.40;64.80
19281;DHT22;9774;52.034;5.342;2023-12-04T01:27:18;6.40;64.80
19281;DHT22;9774;52.034;5.342;2023-12-04T01:29:44;6.40;64.80
19281;DHT22;9774;52.034;5.342;2023-12-04T01:32:11;6.40;64.80
19281;DHT22;9774;52.034;5.342;2023-12-04T01:34:38;6.40;64.70
19281;DHT22;9774;52.034;5.342;2023-12-04T01:37:05;6.40;64.70
19281;DHT22;9774;52.034;5.342;2023-12-04T01:39:34;6.40;64.60
19281;DHT22;9774;52.034;5.342;2023-12-04T01:42:01;6.40;64.70
19281;DHT22;9774;52.034;5.342;2023-12-04T01:44:27;6.40;64.70
19281;DHT22;9774;52.034;5.342;2023-12-04T01:46:55;6.40;64.70
19281;DHT22;9774;52.034;5.342;2023-12-04T01:49:22;6.30;64.70
19281;DHT22;9774;52.034;5.342;2023-12-04T01:51:50;6.30;64.60
19281;DHT22;9774;52.034;5.342;2023-12-04T01:54:17;6.40;64.70
19281;DHT22;9774;52.034;5.342;2023-12-04T01:56:47;6.30;64.60
19281;DHT22;9774;52.034;5.342;2023-12-04T01:59:15;6.30;64.70
19281;DHT22;9774;52.034;5.342;2023-12-04T02:01:43;6.30;64.70
19281;DHT22;9774;52.034;5.342;2023-12-04T02:04:10;6.30;64.70
19281;DHT22;9774;52.034;5.342;2023-12-04T02:06:38;6.30;64.70
19281;DHT22;9774;52.034;5.342;2023-12-04T02:09:07;6.30;64.70
19281;DHT22;9774;52.034;5.342;2023-12-04T02:11:37;6.30;64.70
19281;DHT22;9774;52.034;5.342;2023-12-04T02:14:07;6.30;64.80
19281;DHT22;9774;52.034;5.342;2023-12-04T02:16:38;6.30;64.80
19281;DHT22;9774;52.034;5.342;2023-12-04T02:19:07;6.30;64.80
19281;DHT22;9774;52.034;5.342;2023-12-04T02:21:37;6.30;64.70
19281;DHT22;9774;52.034;5.342;2023-12-04T02:24:06;6.30;64.70
19281;DHT22;9774;52.034;5.342;2023-12-04T02:26:38;6.30;64.70
19281;DHT22;9774;52.034;5.342;2023-12-04T02:29:23;6.30;64.70
19281;DHT22;9774;52.034;5.342;2023-12-04T02:31:55;6.30;64.70
19281;DHT22;9774;52.034;5.342;2023-12-04T02:34:24;6.30;64.70
19281;DHT22;9774;52.034;5.342;2023-12-04T02:36:52;6.30;64.80
19281;DHT22;9774;52.034;5.342;2023-12-04T02:39:21;6.30;64.80
19281;DHT22;9774;52.034;5.342;2023-12-04T02:41:49;6.30;64.70
19281;DHT22;9774;52.034;5.342;2023-12-04T02:44:17;6.30;64.60
19281;DHT22;9774;52.034;5.342;2023-12-04T02:46:44;6.30;64.60
19281;DHT22;9774;52.034;5.342;2023-12-04T02:49:11;6.30;64.60
19281;DHT22;9774;52.034;5.342;2023-12-04T02:51:40;6.30;64.60
19281;DHT22;9774;52.034;5.342;2023-12-04T02:54:07;6.30;64.70
19281;DHT22;9774;52.034;5.342;2023-12-04T02:56:36;6.30;64.60
19281;DHT22;9774;52.034;5.342;2023-12-04T02:59:02;6.30;64.60
19281;DHT22;9774;52.034;5.342;2023-12-04T03:01:29;6.30;64.60
19281;DHT22;9774;52.034;5.342;2023-12-04T03:03:56;6.30;64.60
19281;DHT22;9774;52.034;5.342;2023-12-04T03:06:23;6.30;64.60
19281;DHT22;9774;52.034;5.342;2023-12-04T03:08:50;6.30;64.60
19281;DHT22;9774;52.034;5.342;2023-12-04T03:11:18;6.30;64.60
19281;DHT22;9774;52.034;5.342;2023-12-04T03:13:47;6.30;64.60
19281;DHT22;9774;52.034;5.342;2023-12-04T03:16:17;6.20;64.60
19281;DHT22;9774;52.034;5.342;2023-12-04T03:18:45;6.20;64.70
19281;DHT22;9774;52.034;5.342;2023-12-04T03:21:12;6.30;64.60
19281;DHT22;9774;52.034;5.342;2023-12-04T03:23:39;6.30;64.60
19281;DHT22;9774;52.034;5.342;2023-12-04T03:26:06;6.30;64.50
19281;DHT22;9774;52.034;5.342;2023-12-04T03:28:36;6.20;64.50
19281;DHT22;9774;52.034;5.342;2023-12-04T03:31:06;6.30;64.60
19281;DHT22;9774;52.034;5.342;2023-12-04T03:33:33;6.20;64.50
19281;DHT22;9774;52.034;5.342;2023-12-04T03:36:00;6.20;64.40
19281;DHT22;9774;52.034;5.342;2023-12-04T03:38:27;6.20;64.50
19281;DHT22;9774;52.034;5.342;2023-12-04T03:40:54;6.30;64.50
19281;DHT22;9774;52.034;5.342;2023-12-04T03:43:21;6.20;64.40
19281;DHT22;9774;52.034;5.342;2023-12-04T03:45:48;6.20;64.40
19281;DHT22;9774;52.034;5.342;2023-12-04T03:48:16;6.20;64.40
19281;DHT22;9774;52.034;5.342;2023-12-04T03:50:43;6.20;64.40
19281;DHT22;9774;52.034;5.342;2023-12-04T03:53:10;6.20;64.40
19281;DHT22;9774;52.034;5.342;2023-12-04T03:55:37;6.20;64.30
19281;DHT22;9774;52.034;5.342;2023-12-04T03:58:04;6.20;64.30
19281;DHT22;9774;52.034;5.342;2023-12-04T04:00:31;6.20;64.30
19281;DHT22;9774;52.034;5.342;2023-12-04T04:02:58;6.20;64.30
19281;DHT22;9774;52.034;5.342;2023-12-04T04:05:26;6.10;64.20
19281;DHT22;9774;52.034;5.342;2023-12-04T04:07:53;6.10;64.20
19281;DHT22;9774;52.034;5.342;2023-12-04T04:10:20;6.10;64.20
19281;DHT22;9774;52.034;5.342;2023-12-04T04:12:48;6.10;64.20
19281;DHT22;9774;52.034;5.342;2023-12-04T04:15:15;6.10;64.20
19281;DHT22;9774;52.034;5.342;2023-12-04T04:17:42;6.10;64.10
19281;DHT22;9774;52.034;5.342;2023-12-04T04:20:10;6.10;64.20
19281;DHT22;9774;52.034;5.342;2023-12-04T04:22:39;6.10;64.30
19281;DHT22;9774;52.034;5.342;2023-12-04T04:25:07;6.10;64.30
19281;DHT22;9774;52.034;5.342;2023-12-04T04:27:34;6.00;64.10
19281;DHT22;9774;52.034;5.342;2023-12-04T04:30:02;6.10;64.20
19281;DHT22;9774;52.034;5.342;2023-12-04T04:32:30;6.10;64.20
19281;DHT22;9774;52.034;5.342;2023-12-04T04:34:57;6.10;64.20
19281;DHT22;9774;52.034;5.342;2023-12-04T04:37:24;6.10;64.30
19281;DHT22;9774;52.034;5.342;2023-12-04T04:39:52;6.10;64.30
19281;DHT22;9774;52.034;5.342;2023-12-04T04:42:19;6.10;64.30
19281;DHT22;9774;52.034;5.342;2023-12-04T04:44:46;6.10;64.20
19281;DHT22;9774;52.034;5.342;2023-12-04T04:47:13;6.10;64.10
19281;DHT22;9774;52.034;5.342;2023-12-04T04:49:40;6.10;64.00
19281;DHT22;9774;52.034;5.342;2023-12-04T04:52:07;6.10;64.00
19281;DHT22;9774;52.034;5.342;2023-12-04T04:54:34;6.10;64.00
19281;DHT22;9774;52.034;5.342;2023-12-04T04:57:02;6.10;64.00
19281;DHT22;9774;52.034;5.342;2023-12-04T04:59:30;6.00;63.90
19281;DHT22;9774;52.034;5.342;2023-12-04T05:01:58;6.00;63.90
19281;DHT22;9774;52.034;5.342;2023-12-04T05:04:24;6.10;64.00
19281;DHT22;9774;52.034;5.342;2023-12-04T05:06:52;6.00;63.90
19281;DHT22;9774;52.034;5.342;2023-12-04T05:09:20;6.00;63.90
19281;DHT22;9774;52.034;5.342;2023-12-04T05:11:46;6.00;63.90
19281;DHT22;9774;52.034;5.342;2023-12-04T05:14:15;6.00;63.90
19281;DHT22;9774;52.034;5.342;2023-12-04T05:16:42;6.00;63.90
19281;DHT22;9774;52.034;5.342;2023-12-04T05:19:09;6.00;63.90
19281;DHT22;9774;52.034;5.342;2023-12-04T05:21:36;6.00;63.90
19281;DHT22;9774;52.034;5.342;2023-12-04T05:24:03;6.00;63.90
19281;DHT22;9774;52.034;5.342;2023-12-04T05:26:30;6.00;63.90
19281;DHT22;9774;52.034;5.342;2023-12-04T05:28:57;6.00;64.00
19281;DHT22;9774;52.034;5.342;2023-12-04T05:31:26;6.00;63.90
19281;DHT22;9774;52.034;5.342;2023-12-04T05:33:53;6.00;63.90
19281;DHT22;9774;52.034;5.342;2023-12-04T05:36:20;6.00;63.90
19281;DHT22;9774;52.034;5.342;2023-12-04T05:38:47;6.00;63.80
19281;DHT22;9774;52.034;5.342;2023-12-04T05:41:15;6.00;63.80
19281;DHT22;9774;52.034;5.342;2023-12-04T05:43:41;6.00;63.80
19281;DHT22;9774;52.034;5.342;2023-12-04T05:46:08;6.00;63.80
19281;DHT22;9774;52.034;5.342;2023-12-04T05:48:37;6.10;63.90
19281;DHT22;9774;52.034;5.342;2023-12-04T05:51:04;6.10;63.90
19281;DHT22;9774;52.034;5.342;2023-12-04T05:53:31;6.00;63.80
19281;DHT22;9774;52.034;5.342;2023-12-04T05:55:58;6.10;63.90
19281;DHT22;9774;52.034;5.342;2023-12-04T05:58:25;6.10;63.80
19281;DHT22;9774;52.034;5.342;2023-12-04T06:00:52;6.10;63.90
19281;DHT22;9774;52.034;5.342;2023-12-04T06:03:20;6.10;63.90
19281;DHT22;9774;52.034;5.342;2023-12-04T06:05:49;6.10;64.00
19281;DHT22;9774;52.034;5.342;2023-12-04T06:08:18;6.10;63.80
19281;DHT22;9774;52.034;5.342;2023-12-04T06:10:46;6.10;63.70
19281;DHT22;9774;52.034;5.342;2023-12-04T06:13:13;6.10;63.70
19281;DHT22;9774;52.034;5.342;2023-12-04T06:15:40;6.10;63.70
19281;DHT22;9774;52.034;5.342;2023-12-04T06:18:07;6.10;63.60
19281;DHT22;9774;52.034;5.342;2023-12-04T06:20:34;6.10;63.70
19281;DHT22;9774;52.034;5.342;2023-12-04T06:23:02;6.10;64.30
19281;DHT22;9774;52.034;5.342;2023-12-04T06:25:30;6.10;63.50
19281;DHT22;9774;52.034;5.342;2023-12-04T06:27:58;6.10;63.50
19281;DHT22;9774;52.034;5.342;2023-12-04T06:30:25;6.10;63.50
19281;DHT22;9774;52.034;5.342;2023-12-04T06:32:53;6.10;63.50
19281;DHT22;9774;52.034;5.342;2023-12-04T06:35:21;6.10;63.50
19281;DHT22;9774;52.034;5.342;2023-12-04T06:37:49;6.10;63.40
19281;DHT22;9774;52.034;5.342;2023-12-04T06:40:22;6.10;63.40
19281;DHT22;9774;52.034;5.342;2023-12-04T06:42:50;6.10;63.40
19281;DHT22;9774;52.034;5.342;2023-12-04T06:45:18;6.10;63.30
19281;DHT22;9774;52.034;5.342;2023-12-04T06:47:46;6.10;63.20
19281;DHT22;9774;52.034;5.342;2023-12-04T06:50:15;6.10;63.20
19281;DHT22;9774;52.034;5.342;2023-12-04T06:52:43;6.10;63.20
19281;DHT22;9774;52.034;5.342;2023-12-04T06:55:10;6.10;63.20
19281;DHT22;9774;52.034;5.342;2023-12-04T06:57:39;6.10;63.50
19281;DHT22;9774;52.034;5.342;2023-12-04T07:00:07;6.10;63.10
19281;DHT22;9774;52.034;5.342;2023-12-04T07:02:37;6.10;63.10
19281;DHT22;9774;52.034;5.342;2023-12-04T07:05:05;6.10;63.20
19281;DHT22;9774;52.034;5.342;2023-12-04T07:07:33;6.10;63.10
19281;DHT22;9774;52.034;5.342;2023-12-04T07:10:00;6.10;63.00
19281;DHT22;9774;52.034;5.342;2023-12-04T07:12:27;6.10;63.10
19281;DHT22;9774;52.034;5.342;2023-12-04T07:14:55;6.10;63.10
19281;DHT22;9774;52.034;5.342;2023-12-04T07:17:22;6.10;63.10
19281;DHT22;9774;52.034;5.342;2023-12-04T07:19:49;6.10;63.10
19281;DHT22;9774;52.034;5.342;2023-12-04T07:22:16;6.10;63.10
19281;DHT22;9774;52.034;5.342;2023-12-04T07:24:43;6.10;63.10
19281;DHT22;9774;52.034;5.342;2023-12-04T07:27:10;6.20;63.10
19281;DHT22;9774;52.034;5.342;2023-12-04T07:29:37;6.20;63.00
19281;DHT22;9774;52.034;5.342;2023-12-04T07:32:07;6.10;62.90
19281;DHT22;9774;52.034;5.342;2023-12-04T07:34:34;6.20;62.90
19281;DHT22;9774;52.034;5.342;2023-12-04T07:37:01;6.20;62.80
19281;DHT22;9774;52.034;5.342;2023-12-04T07:39:28;6.20;62.70
19281;DHT22;9774;52.034;5.342;2023-12-04T07:41:55;6.20;62.80
19281;DHT22;9774;52.034;5.342;2023-12-04T07:44:22;6.20;62.80
19281;DHT22;9774;52.034;5.342;2023-12-04T07:46:49;6.20;62.80
19281;DHT22;9774;52.034;5.342;2023-12-04T07:49:17;6.20;62.80
19281;DHT22;9774;52.034;5.342;2023-12-04T07:51:44;6.20;62.80
19281;DHT22;9774;52.034;5.342;2023-12-04T07:54:12;6.20;62.70
19281;DHT22;9774;52.034;5.342;2023-12-04T07:56:39;6.20;62.60
19281;DHT22;9774;52.034;5.342;2023-12-04T07:59:06;6.30;62.60
19281;DHT22;9774;52.034;5.342;2023-12-04T08:01:33;6.30;62.50
19281;DHT22;9774;52.034;5.342;2023-12-04T08:04:00;6.30;62.40
19281;DHT22;9774;52.034;5.342;2023-12-04T08:06:29;6.30;62.50
19281;DHT22;9774;52.034;5.342;2023-12-04T08:08:56;6.30;62.50
19281;DHT22;9774;52.034;5.342;2023-12-04T08:11:24;6.30;62.50
19281;DHT22;9774;52.034;5.342;2023-12-04T08:13:51;6.40;62.50
19281;DHT22;9774;52.034;5.342;2023-12-04T08:16:18;6.40;62.50
19281;DHT22;9774;52.034;5.342;2023-12-04T08:18:46;6.30;62.40
19281;DHT22;9774;52.034;5.342;2023-12-04T08:21:13;6.40;62.40
19281;DHT22;9774;52.034;5.342;2023-12-04T08:23:41;6.40;62.40
19281;DHT22;9774;52.034;5.342;2023-12-04T08:26:08;6.40;62.20
19281;DHT22;9774;52.034;5.342;2023-12-04T08:28:35;6.40;62.20
19281;DHT22;9774;52.034;5.342;2023-12-04T08:31:03;6.40;62.20
19281;DHT22;9774;52.034;5.342;2023-12-04T12:25:46;3.50;70.30
19281;DHT22;9774;52.034;5.342;2023-12-04T12:28:15;3.50;70.60
19281;DHT22;9774;52.034;5.342;2023-12-04T12:30:43;3.90;70.10
19281;DHT22;9774;52.034;5.342;2023-12-04T12:33:13;4.20;69.20
19281;DHT22;9774;52.034;5.342;2023-12-04T12:35:40;4.60;68.50
19281;DHT22;9774;52.034;5.342;2023-12-04T12:38:08;5.00;67.80
19281;DHT22;9774;52.034;5.342;2023-12-04T12:40:35;5.20;67.90
19281;DHT22;9774;52.034;5.342;2023-12-04T12:43:07;5.50;66.60
19281;DHT22;9774;52.034;5.342;2023-12-04T12:45:41;5.70;66.20
19281;DHT22;9774;52.034;5.342;2023-12-04T12:48:10;5.90;65.80
19281;DHT22;9774;52.034;5.342;2023-12-04T12:50:39;6.10;65.40
19281;DHT22;9774;52.034;5.342;2023-12-04T12:53:06;6.30;65.10
19281;DHT22;9774;52.034;5.342;2023-12-04T12:55:33;6.40;65.50
19281;DHT22;9774;52.034;5.342;2023-12-04T12:58:00;6.50;64.60
19281;DHT22;9774;52.034;5.342;2023-12-04T13:00:34;6.60;64.40
19281;DHT22;9774;52.034;5.342;2023-12-04T13:03:01;6.80;64.30
19281;DHT22;9774;52.034;5.342;2023-12-04T13:05:28;6.90;64.00
19281;DHT22;9774;52.034;5.342;2023-12-04T13:07:55;7.00;63.90
19281;DHT22;9774;52.034;5.342;2023-12-04T13:10:22;7.10;63.60
19281;DHT22;9774;52.034;5.342;2023-12-04T13:12:50;7.20;63.40
19281;DHT22;9774;52.034;5.342;2023-12-04T13:15:19;7.20;63.10
19281;DHT22;9774;52.034;5.342;2023-12-04T13:17:47;7.30;62.90
19281;DHT22;9774;52.034;5.342;2023-12-04T13:20:14;7.30;62.70
19281;DHT22;9774;52.034;5.342;2023-12-04T13:22:42;7.40;62.50
19281;DHT22;9774;52.034;5.342;2023-12-04T13:25:10;7.40;62.40
19281;DHT22;9774;52.034;5.342;2023-12-04T13:27:37;7.40;62.40
19281;DHT22;9774;52.034;5.342;2023-12-04T13:30:05;7.40;62.40
19281;DHT22;9774;52.034;5.342;2023-12-04T13:32:34;7.40;62.20
19281;DHT22;9774;52.034;5.342;2023-12-04T13:35:03;7.50;62.20
19281;DHT22;9774;52.034;5.342;2023-12-04T13:37:31;7.50;62.20
19281;DHT22;9774;52.034;5.342;2023-12-04T13:39:58;7.50;62.00
19281;DHT22;9774;52.034;5.342;2023-12-04T13:42:31;7.50;62.00
19281;DHT22;9774;52.034;5.342;2023-12-04T13:45:16;7.50;62.00
19281;DHT22;9774;52.034;5.342;2023-12-04T13:47:46;7.60;61.90
19281;DHT22;9774;52.034;5.342;2023-12-04T13:50:15;7.60;61.80
19281;DHT22;9774;52.034;5.342;2023-12-04T13:52:42;7.50;61.80
19281;DHT22;9774;52.034;5.342;2023-12-04T13:55:10;7.60;61.80
19281;DHT22;9774;52.034;5.342;2023-12-04T13:57:45;7.60;61.80
19281;DHT22;9774;52.034;5.342;2023-12-04T14:00:35;7.60;61.80
19281;DHT22;9774;52.034;5.342;2023-12-04T14:03:02;7.60;61.90
19281;DHT22;9774;52.034;5.342;2023-12-04T14:05:31;7.60;61.90
19281;DHT22;9774;52.034;5.342;2023-12-04T14:07:59;7.60;61.90
19281;DHT22;9774;52.034;5.342;2023-12-04T14:10:26;7.60;61.90
19281;DHT22;9774;52.034;5.342;2023-12-04T14:12:54;7.60;61.90
19281;DHT22;9774;52.034;5.342;2023-12-04T14:15:21;7.60;61.80
19281;DHT22;9774;52.034;5.342;2023-12-04T14:17:49;7.60;61.80
19281;DHT22;9774;52.034;5.342;2023-12-04T14:20:16;7.60;61.80
19281;DHT22;9774;52.034;5.342;2023-12-04T14:22:45;7.60;61.70
19281;DHT22;9774;52.034;5.342;2023-12-04T14:25:12;7.60;61.70
19281;DHT22;9774;52.034;5.342;2023-12-04T14:27:39;7.60;61.60
19281;DHT22;9774;52.034;5.342;2023-12-04T14:30:11;7.60;61.50
19281;DHT22;9774;52.034;5.342;2023-12-04T14:32:38;7.60;61.60
19281;DHT22;9774;52.034;5.342;2023-12-04T14:35:07;7.60;61.50
19281;DHT22;9774;52.034;5.342;2023-12-04T14:37:35;7.60;61.50
19281;DHT22;9774;52.034;5.342;2023-12-04T14:40:04;7.60;61.50
19281;DHT22;9774;52.034;5.342;2023-12-04T14:42:32;7.60;61.50
19281;DHT22;9774;52.034;5.342;2023-12-04T14:45:01;7.60;61.50
19281;DHT22;9774;52.034;5.342;2023-12-04T14:47:29;7.50;61.50
19281;DHT22;9774;52.034;5.342;2023-12-04T14:49:56;7.50;62.20
19281;DHT22;9774;52.034;5.342;2023-12-04T14:52:24;7.50;61.40
19281;DHT22;9774;52.034;5.342;2023-12-04T14:54:54;7.50;61.40
19281;DHT22;9774;52.034;5.342;2023-12-04T14:57:47;7.50;61.40
19281;DHT22;9774;52.034;5.342;2023-12-04T15:00:40;7.50;61.40
19281;DHT22;9774;52.034;5.342;2023-12-04T15:03:43;7.50;61.60
19281;DHT22;9774;52.034;5.342;2023-12-04T15:06:33;7.50;61.70
19281;DHT22;9774;52.034;5.342;2023-12-04T15:09:23;7.40;61.80
19281;DHT22;9774;52.034;5.342;2023-12-04T15:12:07;7.40;61.90
19281;DHT22;9774;52.034;5.342;2023-12-04T15:14:49;7.40;62.00
19281;DHT22;9774;52.034;5.342;2023-12-04T15:17:21;7.40;62.00
19281;DHT22;9774;52.034;5.342;2023-12-04T15:19:58;7.40;62.10
19281;DHT22;9774;52.034;5.342;2023-12-04T15:22:46;7.50;62.30
19281;DHT22;9774;52.034;5.342;2023-12-04T15:25:13;7.50;62.30
19281;DHT22;9774;52.034;5.342;2023-12-04T15:27:39;7.40;62.30
19281;DHT22;9774;52.034;5.342;2023-12-04T15:30:09;7.40;62.40
19281;DHT22;9774;52.034;5.342;2023-12-04T15:32:37;7.40;62.40
19281;DHT22;9774;52.034;5.342;2023-12-04T15:35:05;7.40;62.40
19281;DHT22;9774;52.034;5.342;2023-12-04T15:37:32;7.40;62.50
19281;DHT22;9774;52.034;5.342;2023-12-04T15:40:00;7.40;62.50
19281;DHT22;9774;52.034;5.342;2023-12-04T15:42:26;7.40;62.70
19281;DHT22;9774;52.034;5.342;2023-12-04T15:44:54;7.40;62.70
19281;DHT22;9774;52.034;5.342;2023-12-04T15:47:22;7.40;62.80
19281;DHT22;9774;52.034;5.342;2023-12-04T15:49:51;7.40;63.50
19281;DHT22;9774;52.034;5.342;2023-12-04T15:52:17;7.40;63.60
19281;DHT22;9774;52.034;5.342;2023-12-04T15:54:44;7.40;63.00
19281;DHT22;9774;52.034;5.342;2023-12-04T15:57:10;7.40;63.10
19281;DHT22;9774;52.034;5.342;2023-12-04T15:59:37;7.40;63.10
19281;DHT22;9774;52.034;5.342;2023-12-04T16:02:03;7.40;63.20
19281;DHT22;9774;52.034;5.342;2023-12-04T16:04:32;7.40;63.20
19281;DHT22;9774;52.034;5.342;2023-12-04T16:07:01;7.40;63.20
19281;DHT22;9774;52.034;5.342;2023-12-04T16:09:28;7.40;63.30
19281;DHT22;9774;52.034;5.342;2023-12-04T16:11:55;7.40;63.30
19281;DHT22;9774;52.034;5.342;2023-12-04T16:14:22;7.30;63.30
19281;DHT22;9774;52.034;5.342;2023-12-04T16:16:49;7.40;63.40
19281;DHT22;9774;52.034;5.342;2023-12-04T16:19:16;7.30;63.40
19281;DHT22;9774;52.034;5.342;2023-12-04T16:21:44;7.30;63.40
19281;DHT22;9774;52.034;5.342;2023-12-04T16:24:12;7.40;63.50
19281;DHT22;9774;52.034;5.342;2023-12-04T16:26:39;7.30;63.50
19281;DHT22;9774;52.034;5.342;2023-12-04T16:29:06;7.30;63.60
19281;DHT22;9774;52.034;5.342;2023-12-04T16:31:33;7.30;63.60
19281;DHT22;9774;52.034;5.342;2023-12-04T16:33:59;7.40;63.70
19281;DHT22;9774;52.034;5.342;2023-12-04T16:36:26;7.30;63.60
19281;DHT22;9774;52.034;5.342;2023-12-04T16:38:55;7.40;63.70
19281;DHT22;9774;52.034;5.342;2023-12-04T16:41:22;7.30;63.80
19281;DHT22;9774;52.034;5.342;2023-12-04T16:43:49;7.40;63.90
19281;DHT22;9774;52.034;5.342;2023-12-04T16:46:16;7.30;63.80
19281;DHT22;9774;52.034;5.342;2023-12-04T16:48:43;7.40;63.90
19281;DHT22;9774;52.034;5.342;2023-12-04T16:51:10;7.30;63.90
19281;DHT22;9774;52.034;5.342;2023-12-04T16:53:37;7.30;63.90
19281;DHT22;9774;52.034;5.342;2023-12-04T16:56:12;7.30;63.90
19281;DHT22;9774;52.034;5.342;2023-12-04T16:58:40;7.30;64.00
19281;DHT22;9774;52.034;5.342;2023-12-04T17:01:07;7.30;64.00
19281;DHT22;9774;52.034;5.342;2023-12-04T17:03:35;7.30;64.00
19281;DHT22;9774;52.034;5.342;2023-12-04T17:06:02;7.30;64.00
19281;DHT22;9774;52.034;5.342;2023-12-04T17:08:29;7.30;64.10
19281;DHT22;9774;52.034;5.342;2023-12-04T17:10:57;7.30;64.10
19281;DHT22;9774;52.034;5.342;2023-12-04T17:13:25;7.30;64.10
19281;DHT22;9774;52.034;5.342;2023-12-04T17:15:52;7.30;64.10
19281;DHT22;9774;52.034;5.342;2023-12-04T17:18:20;7.30;64.20
19281;DHT22;9774;52.034;5.342;2023-12-04T17:20:47;7.30;64.20
19281;DHT22;9774;52.034;5.342;2023-12-04T17:23:14;7.30;64.20
19281;DHT22;9774;52.034;5.342;2023-12-04T17:25:41;7.30;64.30
19281;DHT22;9774;52.034;5.342;2023-12-04T17:28:08;7.30;64.30
19281;DHT22;9774;52.034;5.342;2023-12-04T17:30:37;7.30;64.30
19281;DHT22;9774;52.034;5.342;2023-12-04T17:33:04;7.30;64.30
19281;DHT22;9774;52.034;5.342;2023-12-04T17:35:32;7.30;65.10
19281;DHT22;9774;52.034;5.342;2023-12-04T17:37:59;7.30;64.40
19281;DHT22;9774;52.034;5.342;2023-12-04T17:40:27;7.30;64.40
19281;DHT22;9774;52.034;5.342;2023-12-04T17:42:54;7.30;64.40
19281;DHT22;9774;52.034;5.342;2023-12-04T17:45:21;7.30;64.40
19281;DHT22;9774;52.034;5.342;2023-12-04T17:47:49;7.30;64.50
19281;DHT22;9774;52.034;5.342;2023-12-04T17:50:16;7.30;64.60
19281;DHT22;9774;52.034;5.342;2023-12-04T17:52:44;7.30;64.60
19281;DHT22;9774;52.034;5.342;2023-12-04T17:55:11;7.30;64.60
19281;DHT22;9774;52.034;5.342;2023-12-04T17:57:38;7.30;64.60
19281;DHT22;9774;52.034;5.342;2023-12-04T18:00:08;7.30;64.70
19281;DHT22;9774;52.034;5.342;2023-12-04T18:02:39;7.30;64.70
19281;DHT22;9774;52.034;5.342;2023-12-04T18:05:09;7.30;64.70
19281;DHT22;9774;52.034;5.342;2023-12-04T18:07:36;7.30;64.70
19281;DHT22;9774;52.034;5.342;2023-12-04T18:10:05;7.30;64.70
19281;DHT22;9774;52.034;5.342;2023-12-04T18:12:33;7.20;64.70
19281;DHT22;9774;52.034;5.342;2023-12-04T18:15:00;7.30;64.70
19281;DHT22;9774;52.034;5.342;2023-12-04T18:17:27;7.30;64.70
19281;DHT22;9774;52.034;5.342;2023-12-04T18:19:55;7.30;64.70
19281;DHT22;9774;52.034;5.342;2023-12-04T18:22:24;7.20;64.60
19281;DHT22;9774;52.034;5.342;2023-12-04T18:24:51;7.20;64.70
19281;DHT22;9774;52.034;5.342;2023-12-04T18:27:18;7.20;64.70
19281;DHT22;9774;52.034;5.342;2023-12-04T18:29:46;7.20;64.80
19281;DHT22;9774;52.034;5.342;2023-12-04T18:32:14;7.20;64.80
19281;DHT22;9774;52.034;5.342;2023-12-04T18:34:41;7.20;64.80
19281;DHT22;9774;52.034;5.342;2023-12-04T18:37:13;7.20;64.90
19281;DHT22;9774;52.034;5.342;2023-12-04T18:39:50;7.20;65.00
19281;DHT22;9774;52.034;5.342;2023-12-04T18:42:18;7.10;65.00
19281;DHT22;9774;52.034;5.342;2023-12-04T18:44:46;7.20;65.00
19281;DHT22;9774;52.034;5.342;2023-12-04T18:47:17;7.10;65.00
19281;DHT22;9774;52.034;5.342;2023-12-04T18:49:48;7.20;65.10
19281;DHT22;9774;52.034;5.342;2023-12-04T18:52:17;7.10;65.10
19281;DHT22;9774;52.034;5.342;2023-12-04T18:54:45;7.20;65.10
19281;DHT22;9774;52.034;5.342;2023-12-04T18:57:14;7.20;65.10
19281;DHT22;9774;52.034;5.342;2023-12-04T18:59:41;7.10;65.00
19281;DHT22;9774;52.034;5.342;2023-12-04T19:02:10;7.10;65.00
19281;DHT22;9774;52.034;5.342;2023-12-04T19:04:38;7.10;65.00
19281;DHT22;9774;52.034;5.342;2023-12-04T19:07:05;7.10;65.00
19281;DHT22;9774;52.034;5.342;2023-12-04T19:09:32;7.10;65.40
19281;DHT22;9774;52.034;5.342;2023-12-04T19:11:59;7.10;65.10
19281;DHT22;9774;52.034;5.342;2023-12-04T19:14:28;7.10;65.20
19281;DHT22;9774;52.034;5.342;2023-12-04T19:16:55;7.10;65.20
19281;DHT22;9774;52.034;5.342;2023-12-04T19:19:22;7.10;65.20
19281;DHT22;9774;52.034;5.342;2023-12-04T19:21:49;7.10;65.40
19281;DHT22;9774;52.034;5.342;2023-12-04T19:24:18;7.10;65.50
19281;DHT22;9774;52.034;5.342;2023-12-04T19:26:48;7.10;65.50
19281;DHT22;9774;52.034;5.342;2023-12-04T19:29:15;7.10;65.40
19281;DHT22;9774;52.034;5.342;2023-12-04T19:31:44;7.10;65.50
19281;DHT22;9774;52.034;5.342;2023-12-04T19:34:11;7.10;65.50
19281;DHT22;9774;52.034;5.342;2023-12-04T19:36:38;7.10;65.50
19281;DHT22;9774;52.034;5.342;2023-12-04T19:39:06;7.10;65.50
19281;DHT22;9774;52.034;5.342;2023-12-04T19:41:36;7.10;65.50
19281;DHT22;9774;52.034;5.342;2023-12-04T19:44:03;7.10;65.50
19281;DHT22;9774;52.034;5.342;2023-12-04T19:46:30;7.10;65.60
19281;DHT22;9774;52.034;5.342;2023-12-04T19:48:58;7.20;65.70
19281;DHT22;9774;52.034;5.342;2023-12-04T19:51:26;7.20;65.70
19281;DHT22;9774;52.034;5.342;2023-12-04T19:53:53;7.10;65.60
19281;DHT22;9774;52.034;5.342;2023-12-04T19:56:20;7.20;65.70
19281;DHT22;9774;52.034;5.342;2023-12-04T19:58:47;7.20;65.70
19281;DHT22;9774;52.034;5.342;2023-12-04T20:01:23;7.20;66.40